sensor_id;sensor_type;location;lat;lon;timestamp;pressure;altitude;pressure_sealevel;temperature
15360;BMP280;7779;49.596;11.070;2024-03-08T00:00:16;98489.88;;;5.20
15360;BMP280;7779;49.596;11.070;2024-03-08T00:02:45;98485.50;;;5.18
15360;BMP280;7779;49.596;11.070;2024-03-08T00:05:12;98481.19;;;5.15
15360;BMP280;7779;49.596;11.070;2024-03-08T00:07:39;98480.31;;;5.15
15360;BMP280;7779;49.596;11.070;2024-03-08T00:10:11;98477.72;;;5.13
15360;BMP280;7779;49.596;11.070;2024-03-08T00:15:04;98472.50;;;5.10
15360;BMP280;7779;49.596;11.070;2024-03-08T00:17:30;98481.56;;;5.10
15360;BMP280;7779;49.596;11.070;2024-03-08T00:19:56;98471.50;;;5.08
15360;BMP280;7779;49.596;11.070;2024-03-08T00:22:23;98474.75;;;5.07
15360;BMP280;7779;49.596;11.070;2024-03-08T00:24:48;98473.78;;;5.05
15360;BMP280;7779;49.596;11.070;2024-03-08T00:27:16;98473.66;;;5.04
15360;BMP280;7779;49.596;11.070;2024-03-08T00:29:42;98471.16;;;5.04
15360;BMP280;7779;49.596;11.070;2024-03-08T00:32:08;98462.63;;;5.01
15360;BMP280;7779;49.596;11.070;2024-03-08T00:34:37;98459.25;;;5.00
15360;BMP280;7779;49.596;11.070;2024-03-08T00:37:04;98469.06;;;4.99
15360;BMP280;7779;49.596;11.070;2024-03-08T00:39:29;98456.66;;;4.99
15360;BMP280;7779;49.596;11.070;2024-03-08T00:41:55;98453.19;;;4.97
15360;BMP280;7779;49.596;11.070;2024-03-08T00:44:21;98457.41;;;4.98
15360;BMP280;7779;49.596;11.070;2024-03-08T00:46:46;98450.81;;;4.98
15360;BMP280;7779;49.596;11.070;2024-03-08T00:49:12;98455.03;;;4.99
15360;BMP280;7779;49.596;11.070;2024-03-08T00:51:38;98456.66;;;4.99
15360;BMP280;7779;49.596;11.070;2024-03-08T00:54:04;98454.19;;;4.99
15360;BMP280;7779;49.596;11.070;2024-03-08T00:56:30;98449.22;;;4.99
15360;BMP280;7779;49.596;11.070;2024-03-08T00:58:55;98449.09;;;4.97
15360;BMP280;7779;49.596;11.070;2024-03-08T01:01:21;98449.94;;;4.98
15360;BMP280;7779;49.596;11.070;2024-03-08T01:03:47;98453.19;;;4.97
15360;BMP280;7779;49.596;11.070;2024-03-08T01:06:14;98440.78;;;4.97
15360;BMP280;7779;49.596;11.070;2024-03-08T01:08:40;98446.47;;;4.96
15360;BMP280;7779;49.596;11.070;2024-03-08T01:11:08;98439.78;;;4.95
15360;BMP280;7779;49.596;11.070;2024-03-08T01:13:35;98436.31;;;4.93
15360;BMP280;7779;49.596;11.070;2024-03-08T01:16:01;98439.56;;;4.92
15360;BMP280;7779;49.596;11.070;2024-03-08T01:18:27;98435.31;;;4.91
15360;BMP280;7779;49.596;11.070;2024-03-08T01:20:53;98431.97;;;4.90
15360;BMP280;7779;49.596;11.070;2024-03-08T01:23:18;98427.75;;;4.89
15360;BMP280;7779;49.596;11.070;2024-03-08T01:25:44;98422.69;;;4.88
15360;BMP280;7779;49.596;11.070;2024-03-08T01:28:09;98423.44;;;4.87
15360;BMP280;7779;49.596;11.070;2024-03-08T01:30:35;98424.19;;;4.86
15360;BMP280;7779;49.596;11.070;2024-03-08T01:33:03;98415.13;;;4.86
15360;BMP280;7779;49.596;11.070;2024-03-08T01:35:29;98415.84;;;4.85
15360;BMP280;7779;49.596;11.070;2024-03-08T01:37:54;98408.28;;;4.84
15360;BMP280;7779;49.596;11.070;2024-03-08T01:40:20;98415.72;;;4.84
15360;BMP280;7779;49.596;11.070;2024-03-08T01:42:46;98405.59;;;4.81
15360;BMP280;7779;49.596;11.070;2024-03-08T01:45:13;98403.09;;;4.81
15360;BMP280;7779;49.596;11.070;2024-03-08T01:47:39;98398.00;;;4.79
15360;BMP280;7779;49.596;11.070;2024-03-08T01:50:06;98403.84;;;4.80
15360;BMP280;7779;49.596;11.070;2024-03-08T01:52:34;98392.91;;;4.78
15360;BMP280;7779;49.596;11.070;2024-03-08T01:55:01;98391.94;;;4.76
15360;BMP280;7779;49.596;11.070;2024-03-08T01:57:31;98388.47;;;4.74
15360;BMP280;7779;49.596;11.070;2024-03-08T02:00:00;98389.72;;;4.69
15360;BMP280;7779;49.596;11.070;2024-03-08T02:02:36;98383.66;;;4.65
15360;BMP280;7779;49.596;11.070;2024-03-08T02:05:03;98379.97;;;4.61
15360;BMP280;7779;49.596;11.070;2024-03-08T02:07:29;98377.09;;;4.56
15360;BMP280;7779;49.596;11.070;2024-03-08T02:09:55;98373.38;;;4.51
15360;BMP280;7779;49.596;11.070;2024-03-08T02:12:21;98376.25;;;4.46
15360;BMP280;7779;49.596;11.070;2024-03-08T02:14:46;98378.38;;;4.41
15360;BMP280;7779;49.596;11.070;2024-03-08T02:17:12;98375.44;;;4.35
15360;BMP280;7779;49.596;11.070;2024-03-08T02:19:38;98357.56;;;4.29
15360;BMP280;7779;49.596;11.070;2024-03-08T02:22:05;98368.00;;;4.26
15360;BMP280;7779;49.596;11.070;2024-03-08T02:24:32;98366.88;;;4.22
15360;BMP280;7779;49.596;11.070;2024-03-08T02:26:58;98373.97;;;4.18
15360;BMP280;7779;49.596;11.070;2024-03-08T02:29:24;98367.00;;;4.14
15360;BMP280;7779;49.596;11.070;2024-03-08T02:31:53;98369.38;;;4.12
15360;BMP280;7779;49.596;11.070;2024-03-08T02:34:18;98362.41;;;4.08
15360;BMP280;7779;49.596;11.070;2024-03-08T02:36:44;98355.63;;;4.06
15360;BMP280;7779;49.596;11.070;2024-03-08T02:39:10;98361.09;;;4.02
15360;BMP280;7779;49.596;11.070;2024-03-08T02:41:36;98357.34;;;3.97
15360;BMP280;7779;49.596;11.070;2024-03-08T02:44:02;98352.16;;;3.94
15360;BMP280;7779;49.596;11.070;2024-03-08T02:46:29;98345.34;;;3.91
15360;BMP280;7779;49.596;11.070;2024-03-08T02:48:56;98350.94;;;3.89
15360;BMP280;7779;49.596;11.070;2024-03-08T02:51:21;98348.19;;;3.86
15360;BMP280;7779;49.596;11.070;2024-03-08T02:53:47;98345.47;;;3.83
15360;BMP280;7779;49.596;11.070;2024-03-08T02:56:15;98344.47;;;3.81
15360;BMP280;7779;49.596;11.070;2024-03-08T02:58:43;98345.22;;;3.80
15360;BMP280;7779;49.596;11.070;2024-03-08T03:01:09;98343.47;;;3.79
15360;BMP280;7779;49.596;11.070;2024-03-08T03:03:36;98344.25;;;3.78
15360;BMP280;7779;49.596;11.070;2024-03-08T03:06:02;98345.97;;;3.79
15360;BMP280;7779;49.596;11.070;2024-03-08T03:08:28;98334.34;;;3.78
15360;BMP280;7779;49.596;11.070;2024-03-08T03:10:54;98334.34;;;3.78
15360;BMP280;7779;49.596;11.070;2024-03-08T03:13:22;98333.44;;;3.78
15360;BMP280;7779;49.596;11.070;2024-03-08T03:15:48;98331.72;;;3.77
15360;BMP280;7779;49.596;11.070;2024-03-08T03:18:14;98331.47;;;3.74
15360;BMP280;7779;49.596;11.070;2024-03-08T03:20:41;98325.41;;;3.70
15360;BMP280;7779;49.596;11.070;2024-03-08T03:23:09;98332.69;;;3.69
15360;BMP280;7779;49.596;11.070;2024-03-08T03:25:35;98331.63;;;3.65
15360;BMP280;7779;49.596;11.070;2024-03-08T03:28:02;98337.03;;;3.61
15360;BMP280;7779;49.596;11.070;2024-03-08T03:30:28;98331.84;;;3.58
15360;BMP280;7779;49.596;11.070;2024-03-08T03:32:59;98339.03;;;3.55
15360;BMP280;7779;49.596;11.070;2024-03-08T03:35:32;98334.56;;;3.51
15360;BMP280;7779;49.596;11.070;2024-03-08T03:37:58;98340.03;;;3.48
15360;BMP280;7779;49.596;11.070;2024-03-08T03:40:32;98338.00;;;3.44
15360;BMP280;7779;49.596;11.070;2024-03-08T03:42:58;98339.41;;;3.40
15360;BMP280;7779;49.596;11.070;2024-03-08T03:45:25;98333.41;;;3.38
15360;BMP280;7779;49.596;11.070;2024-03-08T03:47:50;98334.91;;;3.36
15360;BMP280;7779;49.596;11.070;2024-03-08T03:50:18;98335.53;;;3.34
15360;BMP280;7779;49.596;11.070;2024-03-08T03:52:46;98337.00;;;3.32
15360;BMP280;7779;49.596;11.070;2024-03-08T03:55:13;98330.94;;;3.28
15360;BMP280;7779;49.596;11.070;2024-03-08T03:57:40;98328.34;;;3.27
15360;BMP280;7779;49.596;11.070;2024-03-08T04:00:07;98326.63;;;3.26
15360;BMP280;7779;49.596;11.070;2024-03-08T04:02:40;98317.94;;;3.21
15360;BMP280;7779;49.596;11.070;2024-03-08T04:05:10;98317.81;;;3.19
15360;BMP280;7779;49.596;11.070;2024-03-08T04:07:37;98320.91;;;3.17
15360;BMP280;7779;49.596;11.070;2024-03-08T04:10:05;98320.91;;;3.17
15360;BMP280;7779;49.596;11.070;2024-03-08T04:12:35;98320.91;;;3.17
15360;BMP280;7779;49.596;11.070;2024-03-08T04:15:01;98318.03;;;3.12
15360;BMP280;7779;49.596;11.070;2024-03-08T04:17:27;98320.63;;;3.14
15360;BMP280;7779;49.596;11.070;2024-03-08T04:19:53;98313.94;;;3.13
15360;BMP280;7779;49.596;11.070;2024-03-08T04:22:19;98313.84;;;3.11
15360;BMP280;7779;49.596;11.070;2024-03-08T04:24:45;98314.69;;;3.12
15360;BMP280;7779;49.596;11.070;2024-03-08T04:27:12;98314.56;;;3.10
15360;BMP280;7779;49.596;11.070;2024-03-08T04:29:38;98319.38;;;3.09
15360;BMP280;7779;49.596;11.070;2024-03-08T04:32:05;98315.19;;;3.08
15360;BMP280;7779;49.596;11.070;2024-03-08T04:34:32;98305.78;;;3.04
15360;BMP280;7779;49.596;11.070;2024-03-08T04:37:01;98304.75;;;3.02
15360;BMP280;7779;49.596;11.070;2024-03-08T04:39:27;98297.09;;;2.99
15360;BMP280;7779;49.596;11.070;2024-03-08T04:42:04;98308.47;;;2.97
15360;BMP280;7779;49.596;11.070;2024-03-08T04:44:32;98298.94;;;2.92
15360;BMP280;7779;49.596;11.070;2024-03-08T04:46:59;98303.00;;;2.91
15360;BMP280;7779;49.596;11.070;2024-03-08T04:49:25;98294.59;;;2.89
15360;BMP280;7779;49.596;11.070;2024-03-08T04:51:51;98290.41;;;2.88
15360;BMP280;7779;49.596;11.070;2024-03-08T04:54:17;98287.78;;;2.87
15360;BMP280;7779;49.596;11.070;2024-03-08T04:56:43;98282.84;;;2.87
15360;BMP280;7779;49.596;11.070;2024-03-08T04:59:08;98288.66;;;2.87
15360;BMP280;7779;49.596;11.070;2024-03-08T05:01:34;98292.75;;;2.87
15360;BMP280;7779;49.596;11.070;2024-03-08T05:04:04;98289.50;;;2.88
15360;BMP280;7779;49.596;11.070;2024-03-08T05:06:29;98294.84;;;2.92
15360;BMP280;7779;49.596;11.070;2024-03-08T05:08:56;98296.69;;;2.95
15360;BMP280;7779;49.596;11.070;2024-03-08T05:11:21;98294.38;;;2.96
15360;BMP280;7779;49.596;11.070;2024-03-08T05:13:47;98291.16;;;2.97
15360;BMP280;7779;49.596;11.070;2024-03-08T05:16:13;98287.94;;;2.98
15360;BMP280;7779;49.596;11.070;2024-03-08T05:18:41;98285.59;;;3.00
15360;BMP280;7779;49.596;11.070;2024-03-08T05:21:07;98284.72;;;2.99
15360;BMP280;7779;49.596;11.070;2024-03-08T05:23:35;98287.34;;;3.01
15360;BMP280;7779;49.596;11.070;2024-03-08T05:26:00;98280.91;;;3.03
15360;BMP280;7779;49.596;11.070;2024-03-08T05:28:26;98271.88;;;3.03
15360;BMP280;7779;49.596;11.070;2024-03-08T05:30:52;98277.31;;;3.09
15360;BMP280;7779;49.596;11.070;2024-03-08T05:33:18;98279.28;;;3.13
15360;BMP280;7779;49.596;11.070;2024-03-08T05:35:45;98281.31;;;3.17
15360;BMP280;7779;49.596;11.070;2024-03-08T05:38:10;98275.09;;;3.22
15360;BMP280;7779;49.596;11.070;2024-03-08T05:40:38;98271.41;;;3.27
15360;BMP280;7779;49.596;11.070;2024-03-08T05:43:04;98271.88;;;3.33
15360;BMP280;7779;49.596;11.070;2024-03-08T05:45:30;98266.47;;;3.37
15360;BMP280;7779;49.596;11.070;2024-03-08T05:47:56;98266.94;;;3.43
15360;BMP280;7779;49.596;11.070;2024-03-08T05:50:22;98264.84;;;3.47
15360;BMP280;7779;49.596;11.070;2024-03-08T05:52:48;98267.69;;;3.51
15360;BMP280;7779;49.596;11.070;2024-03-08T05:55:13;98265.47;;;3.54
15360;BMP280;7779;49.596;11.070;2024-03-08T05:57:42;98264.97;;;3.58
15360;BMP280;7779;49.596;11.070;2024-03-08T06:00:09;98253.72;;;3.62
15360;BMP280;7779;49.596;11.070;2024-03-08T06:02:41;98263.72;;;3.63
15360;BMP280;7779;49.596;11.070;2024-03-08T06:05:12;98255.56;;;3.64
15360;BMP280;7779;49.596;11.070;2024-03-08T06:07:38;98247.47;;;3.67
15360;BMP280;7779;49.596;11.070;2024-03-08T06:10:10;98249.34;;;3.69
15360;BMP280;7779;49.596;11.070;2024-03-08T06:12:39;98257.53;;;3.68
15360;BMP280;7779;49.596;11.070;2024-03-08T06:15:08;98252.69;;;3.70
15360;BMP280;7779;49.596;11.070;2024-03-08T06:17:38;98247.09;;;3.72
15360;BMP280;7779;49.596;11.070;2024-03-08T06:20:04;98246.38;;;3.73
15360;BMP280;7779;49.596;11.070;2024-03-08T06:22:37;98251.59;;;3.76
15360;BMP280;7779;49.596;11.070;2024-03-08T06:25:09;98251.81;;;3.79
15360;BMP280;7779;49.596;11.070;2024-03-08T06:27:41;98248.81;;;3.83
15360;BMP280;7779;49.596;11.070;2024-03-08T06:30:09;98250.81;;;3.87
15360;BMP280;7779;49.596;11.070;2024-03-08T06:32:38;98247.19;;;3.93
15360;BMP280;7779;49.596;11.070;2024-03-08T06:35:07;98240.28;;;3.99
15360;BMP280;7779;49.596;11.070;2024-03-08T06:37:34;98244.19;;;4.07
15360;BMP280;7779;49.596;11.070;2024-03-08T06:40:00;98238.97;;;4.14
15360;BMP280;7779;49.596;11.070;2024-03-08T06:42:27;98235.59;;;4.24
15360;BMP280;7779;49.596;11.070;2024-03-08T06:44:53;98232.97;;;4.32
15360;BMP280;7779;49.596;11.070;2024-03-08T06:47:21;98232.91;;;4.42
15360;BMP280;7779;49.596;11.070;2024-03-08T06:49:51;98237.84;;;4.52
15360;BMP280;7779;49.596;11.070;2024-03-08T06:52:17;98231.31;;;4.64
15360;BMP280;7779;49.596;11.070;2024-03-08T06:54:43;98226.19;;;4.72
15360;BMP280;7779;49.596;11.070;2024-03-08T06:57:09;98220.53;;;4.84
15360;BMP280;7779;49.596;11.070;2024-03-08T06:59:36;98224.81;;;4.97
15360;BMP280;7779;49.596;11.070;2024-03-08T07:02:04;98224.00;;;5.07
15360;BMP280;7779;49.596;11.070;2024-03-08T07:04:30;98218.81;;;5.16
15360;BMP280;7779;49.596;11.070;2024-03-08T07:06:57;98222.84;;;5.25
15360;BMP280;7779;49.596;11.070;2024-03-08T07:09:26;98223.75;;;5.37
15360;BMP280;7779;49.596;11.070;2024-03-08T07:11:52;98216.97;;;5.46
15360;BMP280;7779;49.596;11.070;2024-03-08T07:14:23;98213.53;;;5.55
15360;BMP280;7779;49.596;11.070;2024-03-08T07:16:50;98217.53;;;5.65
15360;BMP280;7779;49.596;11.070;2024-03-08T07:19:17;98207.53;;;5.75
15360;BMP280;7779;49.596;11.070;2024-03-08T07:21:44;98204.84;;;5.83
15360;BMP280;7779;49.596;11.070;2024-03-08T07:24:10;98208.84;;;5.92
15360;BMP280;7779;49.596;11.070;2024-03-08T07:26:45;98199.56;;;6.01
15360;BMP280;7779;49.596;11.070;2024-03-08T07:29:16;98199.31;;;6.10
15360;BMP280;7779;49.596;11.070;2024-03-08T07:31:41;98194.34;;;6.21
15360;BMP280;7779;49.596;11.070;2024-03-08T07:34:07;98195.00;;;6.30
15360;BMP280;7779;49.596;11.070;2024-03-08T07:36:36;98186.53;;;6.39
15360;BMP280;7779;49.596;11.070;2024-03-08T07:39:02;98188.69;;;6.46
15360;BMP280;7779;49.596;11.070;2024-03-08T07:41:28;98185.19;;;6.56
15360;BMP280;7779;49.596;11.070;2024-03-08T07:43:58;98182.38;;;6.62
15360;BMP280;7779;49.596;11.070;2024-03-08T07:46:24;98181.25;;;6.70
15360;BMP280;7779;49.596;11.070;2024-03-08T07:48:49;98176.91;;;6.79
15360;BMP280;7779;49.596;11.070;2024-03-08T07:51:18;98183.34;;;6.89
15360;BMP280;7779;49.596;11.070;2024-03-08T07:53:43;98169.69;;;6.95
15360;BMP280;7779;49.596;11.070;2024-03-08T07:56:10;98170.31;;;7.04
15360;BMP280;7779;49.596;11.070;2024-03-08T07:58:39;98170.91;;;7.13
15360;BMP280;7779;49.596;11.070;2024-03-08T08:01:06;98169.78;;;7.21
15360;BMP280;7779;49.596;11.070;2024-03-08T08:03:32;98163.56;;;7.27
15360;BMP280;7779;49.596;11.070;2024-03-08T08:05:58;98174.03;;;7.35
15360;BMP280;7779;49.596;11.070;2024-03-08T08:08:24;98161.22;;;7.41
15360;BMP280;7779;49.596;11.070;2024-03-08T08:10:51;98167.44;;;7.48
15360;BMP280;7779;49.596;11.070;2024-03-08T08:13:17;98153.75;;;7.54
15360;BMP280;7779;49.596;11.070;2024-03-08T08:15:43;98157.59;;;7.62
15360;BMP280;7779;49.596;11.070;2024-03-08T08:18:09;98152.34;;;7.71
15360;BMP280;7779;49.596;11.070;2024-03-08T08:20:35;98148.56;;;7.77
15360;BMP280;7779;49.596;11.070;2024-03-08T08:23:01;98151.38;;;7.81
15360;BMP280;7779;49.596;11.070;2024-03-08T08:25:27;98151.75;;;7.87
15360;BMP280;7779;49.596;11.070;2024-03-08T08:27:52;98148.78;;;7.93
15360;BMP280;7779;49.596;11.070;2024-03-08T08:30:19;98139.22;;;7.99
15360;BMP280;7779;49.596;11.070;2024-03-08T08:32:46;98147.16;;;8.06
15360;BMP280;7779;49.596;11.070;2024-03-08T08:35:12;98137.69;;;8.14
15360;BMP280;7779;49.596;11.070;2024-03-08T08:37:41;98125.78;;;8.22
15360;BMP280;7779;49.596;11.070;2024-03-08T08:40:08;98126.34;;;8.31
15360;BMP280;7779;49.596;11.070;2024-03-08T08:42:40;98117.66;;;8.39
15360;BMP280;7779;49.596;11.070;2024-03-08T08:45:07;98117.25;;;8.46
15360;BMP280;7779;49.596;11.070;2024-03-08T08:47:37;98110.31;;;8.55
15360;BMP280;7779;49.596;11.070;2024-03-08T08:50:04;98114.81;;;8.60
15360;BMP280;7779;49.596;11.070;2024-03-08T08:52:33;98102.78;;;8.68
15360;BMP280;7779;49.596;11.070;2024-03-08T08:55:00;98102.47;;;8.76
15360;BMP280;7779;49.596;11.070;2024-03-08T08:57:26;98104.63;;;8.85
15360;BMP280;7779;49.596;11.070;2024-03-08T08:59:53;98102.66;;;8.94
15360;BMP280;7779;49.596;11.070;2024-03-08T09:02:19;98094.94;;;9.03
15360;BMP280;7779;49.596;11.070;2024-03-08T09:04:46;98081.31;;;9.13
15360;BMP280;7779;49.596;11.070;2024-03-08T09:07:14;98092.69;;;9.22
15360;BMP280;7779;49.596;11.070;2024-03-08T09:09:42;98091.47;;;9.30
15360;BMP280;7779;49.596;11.070;2024-03-08T09:12:07;98087.00;;;9.39
15360;BMP280;7779;49.596;11.070;2024-03-08T09:14:33;98083.41;;;9.48
15360;BMP280;7779;49.596;11.070;2024-03-08T09:16:59;98078.97;;;9.59
15360;BMP280;7779;49.596;11.070;2024-03-08T09:19:24;98078.63;;;9.67
15360;BMP280;7779;49.596;11.070;2024-03-08T09:21:51;98073.94;;;9.73
15360;BMP280;7779;49.596;11.070;2024-03-08T09:24:17;98074.22;;;9.77
15360;BMP280;7779;49.596;11.070;2024-03-08T09:26:43;98062.81;;;9.82
15360;BMP280;7779;49.596;11.070;2024-03-08T09:29:09;98064.69;;;9.86
15360;BMP280;7779;49.596;11.070;2024-03-08T09:31:36;98064.19;;;9.92
15360;BMP280;7779;49.596;11.070;2024-03-08T09:34:03;98055.31;;;9.97
15360;BMP280;7779;49.596;11.070;2024-03-08T09:36:29;98060.72;;;10.04
15360;BMP280;7779;49.596;11.070;2024-03-08T09:38:55;98054.47;;;10.12
15360;BMP280;7779;49.596;11.070;2024-03-08T09:41:21;98048.16;;;10.18
15360;BMP280;7779;49.596;11.070;2024-03-08T09:43:46;98048.56;;;10.26
15360;BMP280;7779;49.596;11.070;2024-03-08T09:46:14;98051.53;;;10.35
15360;BMP280;7779;49.596;11.070;2024-03-08T09:48:40;98048.69;;;10.45
15360;BMP280;7779;49.596;11.070;2024-03-08T09:51:07;98056.53;;;10.51
15360;BMP280;7779;49.596;11.070;2024-03-08T09:53:35;98047.69;;;10.57
15360;BMP280;7779;49.596;11.070;2024-03-08T09:56:01;98046.38;;;10.63
15360;BMP280;7779;49.596;11.070;2024-03-08T09:58:29;98044.25;;;10.71
15360;BMP280;7779;49.596;11.070;2024-03-08T10:01:00;98046.34;;;10.79
15360;BMP280;7779;49.596;11.070;2024-03-08T10:03:29;98045.94;;;10.88
15360;BMP280;7779;49.596;11.070;2024-03-08T10:05:56;98037.09;;;10.94
15360;BMP280;7779;49.596;11.070;2024-03-08T10:08:29;98039.81;;;10.98
15360;BMP280;7779;49.596;11.070;2024-03-08T10:10:56;98046.78;;;11.04
15360;BMP280;7779;49.596;11.070;2024-03-08T10:13:26;98038.69;;;11.09
15360;BMP280;7779;49.596;11.070;2024-03-08T10:15:55;98019.66;;;11.13
15360;BMP280;7779;49.596;11.070;2024-03-08T10:18:21;98017.31;;;11.16
15360;BMP280;7779;49.596;11.070;2024-03-08T10:21:05;98015.09;;;11.22
15360;BMP280;7779;49.596;11.070;2024-03-08T10:23:33;98007.72;;;11.25
15360;BMP280;7779;49.596;11.070;2024-03-08T10:26:16;98010.44;;;11.29
15360;BMP280;7779;49.596;11.070;2024-03-08T10:28:49;98008.84;;;11.31
15360;BMP280;7779;49.596;11.070;2024-03-08T10:31:16;98005.66;;;11.33
15360;BMP280;7779;49.596;11.070;2024-03-08T10:33:42;97994.97;;;11.37
15360;BMP280;7779;49.596;11.070;2024-03-08T10:36:08;97991.88;;;11.43
15360;BMP280;7779;49.596;11.070;2024-03-08T10:38:40;97982.97;;;11.48
15360;BMP280;7779;49.596;11.070;2024-03-08T10:41:09;97991.69;;;11.56
15360;BMP280;7779;49.596;11.070;2024-03-08T10:49:40;97980.78;;;11.72
15360;BMP280;7779;49.596;11.070;2024-03-08T10:52:10;97982.72;;;11.78
15360;BMP280;7779;49.596;11.070;2024-03-08T10:54:39;97983.00;;;11.84
15360;BMP280;7779;49.596;11.070;2024-03-08T10:57:06;97975.75;;;11.90
15360;BMP280;7779;49.596;11.070;2024-03-08T10:59:34;97973.41;;;11.94
15360;BMP280;7779;49.596;11.070;2024-03-08T11:02:01;97974.50;;;11.99
15360;BMP280;7779;49.596;11.070;2024-03-08T11:04:27;97968.88;;;12.05
15360;BMP280;7779;49.596;11.070;2024-03-08T11:07:04;97965.00;;;12.11
15360;BMP280;7779;49.596;11.070;2024-03-08T11:09:38;97959.38;;;12.16
15360;BMP280;7779;49.596;11.070;2024-03-08T11:12:26;97953.81;;;12.23
15360;BMP280;7779;49.596;11.070;2024-03-08T11:14:59;97949.00;;;12.28
15360;BMP280;7779;49.596;11.070;2024-03-08T11:19:59;97935.19;;;12.37
15360;BMP280;7779;49.596;11.070;2024-03-08T11:22:33;97937.94;;;12.43
15360;BMP280;7779;49.596;11.070;2024-03-08T11:25:04;97933.97;;;12.48
15360;BMP280;7779;49.596;11.070;2024-03-08T11:27:35;97927.50;;;12.53
15360;BMP280;7779;49.596;11.070;2024-03-08T11:30:05;97924.31;;;12.57
15360;BMP280;7779;49.596;11.070;2024-03-08T11:32:38;97932.09;;;12.63
15360;BMP280;7779;49.596;11.070;2024-03-08T11:35:30;97916.47;;;12.70
15360;BMP280;7779;49.596;11.070;2024-03-08T11:37:58;97909.16;;;12.74
15360;BMP280;7779;49.596;11.070;2024-03-08T11:40:26;97896.75;;;12.79
15360;BMP280;7779;49.596;11.070;2024-03-08T11:42:52;97888.69;;;12.86
15360;BMP280;7779;49.596;11.070;2024-03-08T11:45:18;97888.94;;;12.91
15360;BMP280;7779;49.596;11.070;2024-03-08T11:47:46;97889.19;;;12.97
15360;BMP280;7779;49.596;11.070;2024-03-08T11:50:16;97878.63;;;13.06
15360;BMP280;7779;49.596;11.070;2024-03-08T11:52:43;97881.31;;;13.10
15360;BMP280;7779;49.596;11.070;2024-03-08T11:55:11;97874.84;;;13.17
15360;BMP280;7779;49.596;11.070;2024-03-08T11:57:38;97876.75;;;13.22
15360;BMP280;7779;49.596;11.070;2024-03-08T12:00:04;97869.50;;;13.29
15360;BMP280;7779;49.596;11.070;2024-03-08T12:02:36;97869.75;;;13.35
15360;BMP280;7779;49.596;11.070;2024-03-08T12:05:04;97866.47;;;13.38
15360;BMP280;7779;49.596;11.070;2024-03-08T12:07:32;97858.22;;;13.42
15360;BMP280;7779;49.596;11.070;2024-03-08T12:10:19;97850.06;;;13.47
15360;BMP280;7779;49.596;11.070;2024-03-08T12:12:53;97851.03;;;13.51
15360;BMP280;7779;49.596;11.070;2024-03-08T12:15:21;97840.97;;;13.51
15360;BMP280;7779;49.596;11.070;2024-03-08T12:17:51;97842.78;;;13.55
15360;BMP280;7779;49.596;11.070;2024-03-08T12:20:24;97823.59;;;13.57
15360;BMP280;7779;49.596;11.070;2024-03-08T12:22:55;97841.41;;;13.63
15360;BMP280;7779;49.596;11.070;2024-03-08T12:25:31;97822.13;;;13.63
15360;BMP280;7779;49.596;11.070;2024-03-08T12:28:07;97813.88;;;13.67
15360;BMP280;7779;49.596;11.070;2024-03-08T12:30:45;97814.00;;;13.70
15360;BMP280;7779;49.596;11.070;2024-03-08T12:33:12;97825.03;;;13.73
15360;BMP280;7779;49.596;11.070;2024-03-08T12:35:38;97819.31;;;13.77
15360;BMP280;7779;49.596;11.070;2024-03-08T12:38:04;97826.22;;;13.83
15360;BMP280;7779;49.596;11.070;2024-03-08T12:40:33;97827.19;;;13.86
15360;BMP280;7779;49.596;11.070;2024-03-08T12:43:01;97807.94;;;13.88
15360;BMP280;7779;49.596;11.070;2024-03-08T12:45:28;97808.00;;;13.90
15360;BMP280;7779;49.596;11.070;2024-03-08T12:47:55;97793.75;;;13.90
15360;BMP280;7779;49.596;11.070;2024-03-08T12:50:22;97793.84;;;13.93
15360;BMP280;7779;49.596;11.070;2024-03-08T12:52:48;97798.13;;;13.96
15360;BMP280;7779;49.596;11.070;2024-03-08T12:55:15;97787.31;;;13.98
15360;BMP280;7779;49.596;11.070;2024-03-08T12:57:44;97781.63;;;14.02
15360;BMP280;7779;49.596;11.070;2024-03-08T13:00:11;97786.78;;;14.06
15360;BMP280;7779;49.596;11.070;2024-03-08T13:02:47;97778.56;;;14.10
15360;BMP280;7779;49.596;11.070;2024-03-08T13:05:14;97781.97;;;14.12
15360;BMP280;7779;49.596;11.070;2024-03-08T13:07:41;97777.03;;;14.15
15360;BMP280;7779;49.596;11.070;2024-03-08T13:10:15;97759.44;;;14.17
15360;BMP280;7779;49.596;11.070;2024-03-08T13:12:44;97762.88;;;14.19
15360;BMP280;7779;49.596;11.070;2024-03-08T13:15:11;97754.53;;;14.20
15360;BMP280;7779;49.596;11.070;2024-03-08T13:17:40;97756.28;;;14.22
15360;BMP280;7779;49.596;11.070;2024-03-08T13:20:08;97748.00;;;14.26
15360;BMP280;7779;49.596;11.070;2024-03-08T13:22:35;97752.31;;;14.30
15360;BMP280;7779;49.596;11.070;2024-03-08T13:25:02;97747.41;;;14.33
15360;BMP280;7779;49.596;11.070;2024-03-08T13:27:28;97734.84;;;14.35
15360;BMP280;7779;49.596;11.070;2024-03-08T13:29:54;97741.69;;;14.39
15360;BMP280;7779;49.596;11.070;2024-03-08T13:32:20;97733.41;;;14.43
15360;BMP280;7779;49.596;11.070;2024-03-08T13:34:46;97731.81;;;14.44
15360;BMP280;7779;49.596;11.070;2024-03-08T13:37:17;97727.69;;;14.46
15360;BMP280;7779;49.596;11.070;2024-03-08T13:39:43;97733.63;;;14.48
15360;BMP280;7779;49.596;11.070;2024-03-08T13:42:16;97728.66;;;14.51
15360;BMP280;7779;49.596;11.070;2024-03-08T13:44:48;97723.69;;;14.53
15360;BMP280;7779;49.596;11.070;2024-03-08T13:47:18;97715.28;;;14.52
15360;BMP280;7779;49.596;11.070;2024-03-08T13:49:44;97716.06;;;14.51
15360;BMP280;7779;49.596;11.070;2024-03-08T13:52:10;97718.59;;;14.51
15360;BMP280;7779;49.596;11.070;2024-03-08T13:54:38;97720.31;;;14.52
15360;BMP280;7779;49.596;11.070;2024-03-08T13:57:04;97710.31;;;14.55
15360;BMP280;7779;49.596;11.070;2024-03-08T13:59:31;97710.41;;;14.58
15360;BMP280;7779;49.596;11.070;2024-03-08T14:01:59;97700.44;;;14.61
15360;BMP280;7779;49.596;11.070;2024-03-08T14:04:30;97698.81;;;14.63
15360;BMP280;7779;49.596;11.070;2024-03-08T14:06:56;97692.94;;;14.64
15360;BMP280;7779;49.596;11.070;2024-03-08T14:09:25;97680.34;;;14.64
15360;BMP280;7779;49.596;11.070;2024-03-08T14:11:57;97680.50;;;14.69
15360;BMP280;7779;49.596;11.070;2024-03-08T14:14:24;97679.66;;;14.70
15360;BMP280;7779;49.596;11.070;2024-03-08T14:16:50;97672.97;;;14.70
15360;BMP280;7779;49.596;11.070;2024-03-08T14:19:20;97670.47;;;14.70
15360;BMP280;7779;49.596;11.070;2024-03-08T14:21:46;97672.97;;;14.70
15360;BMP280;7779;49.596;11.070;2024-03-08T14:24:17;97665.41;;;14.70
15360;BMP280;7779;49.596;11.070;2024-03-08T14:26:44;97670.53;;;14.73
15360;BMP280;7779;49.596;11.070;2024-03-08T14:29:10;97668.91;;;14.75